createdAt,value
2023-02-17T00:01:15.430Z,81.20
2023-02-17T00:04:18.415Z,81.41
2023-02-17T00:07:21.406Z,81.94
2023-02-17T00:10:24.301Z,82.28
2023-02-17T00:13:27.350Z,82.16
2023-02-17T00:16:30.334Z,82.39
2023-02-17T00:19:33.281Z,82.46
2023-02-17T00:22:36.466Z,82.24
2023-02-17T00:25:39.932Z,81.69
2023-02-17T00:28:43.323Z,82.02
2023-02-17T00:31:47.219Z,82.06
2023-02-17T00:34:52.587Z,81.76
2023-02-17T00:37:55.564Z,81.81
2023-02-17T00:40:58.505Z,82.51
2023-02-17T00:44:01.589Z,82.41
2023-02-17T00:47:05.160Z,82.63
2023-02-17T00:50:08.769Z,82.88
2023-02-17T00:53:11.703Z,83.15
2023-02-17T00:56:15.533Z,82.88
2023-02-17T00:59:18.405Z,82.77
2023-02-17T01:02:21.345Z,82.67
2023-02-17T01:05:24.348Z,82.97
2023-02-17T01:08:27.335Z,82.88
2023-02-17T01:11:32.258Z,82.96
2023-02-17T01:14:35.200Z,82.56
2023-02-17T01:17:38.088Z,82.89
2023-02-17T01:20:42.083Z,83.05
2023-02-17T01:23:45.147Z,82.99
2023-02-17T01:26:48.141Z,83.07
2023-02-17T01:29:51.070Z,83.21
2023-02-17T01:32:54.015Z,83.27
2023-02-17T01:36:02.561Z,83.70
2023-02-17T01:39:05.693Z,83.61
2023-02-17T01:42:17.269Z,83.92
2023-02-17T01:45:20.118Z,83.79
2023-02-17T01:48:27.342Z,83.48
2023-02-17T01:51:36.134Z,83.51
2023-02-17T01:54:47.476Z,83.14
2023-02-17T01:57:54.092Z,83.11
2023-02-17T02:01:00.162Z,83.76
2023-02-17T02:04:06.207Z,83.20
2023-02-17T02:07:35.152Z,83.15
2023-02-17T02:10:50.139Z,83.07
2023-02-17T02:14:14.107Z,82.65
2023-02-17T02:18:00.743Z,82.77
2023-02-17T02:21:48.409Z,82.79
2023-02-17T02:26:17.025Z,83.00
2023-02-17T02:29:59.576Z,82.84
2023-02-17T02:33:58.941Z,82.92
2023-02-17T02:38:17.372Z,83.08
2023-02-17T02:42:02.890Z,83.22
2023-02-17T02:45:49.067Z,83.34
2023-02-17T02:49:32.476Z,83.16
2023-02-17T02:53:22.249Z,83.10
2023-02-17T02:57:18.015Z,83.52
2023-02-17T03:00:54.605Z,83.59
2023-02-17T03:04:53.180Z,83.40
2023-02-17T03:08:38.614Z,83.05
2023-02-17T03:12:06.069Z,83.09
2023-02-17T03:15:47.191Z,82.85
2023-02-17T03:19:29.942Z,82.91
2023-02-17T03:22:46.972Z,83.15
2023-02-17T03:25:58.290Z,84.85
2023-02-17T03:29:06.338Z,84.70
2023-02-17T03:32:17.372Z,84.20
2023-02-17T03:35:39.815Z,83.56
2023-02-17T03:39:07.880Z,82.79
2023-02-17T03:42:28.694Z,82.18
2023-02-17T03:45:46.875Z,82.00
2023-02-17T03:49:14.457Z,81.97
2023-02-17T03:52:41.358Z,82.02
2023-02-17T03:55:59.768Z,82.07
2023-02-17T03:59:21.780Z,82.00
2023-02-17T04:02:32.531Z,82.01
2023-02-17T04:05:54.708Z,82.06
2023-02-17T04:09:13.318Z,81.98
2023-02-17T04:12:32.096Z,82.06
2023-02-17T04:15:51.569Z,81.84
2023-02-17T04:19:10.552Z,81.75
2023-02-17T04:22:29.750Z,81.92
2023-02-17T04:25:44.582Z,81.92
2023-02-17T04:29:04.591Z,81.75
2023-02-17T04:32:27.757Z,81.46
2023-02-17T04:35:50.518Z,81.31
2023-02-17T04:39:17.841Z,81.06
2023-02-17T04:42:36.411Z,81.07
2023-02-17T04:46:02.989Z,80.80
2023-02-17T04:49:30.240Z,80.47
2023-02-17T04:52:55.228Z,80.37
2023-02-17T04:56:21.980Z,80.20
2023-02-17T04:59:47.125Z,80.08
2023-02-17T05:03:11.788Z,79.89
2023-02-17T05:06:34.700Z,80.06
2023-02-17T05:09:58.658Z,79.83
2023-02-17T05:13:21.922Z,79.78
2023-02-17T05:16:43.611Z,79.88
2023-02-17T05:20:03.515Z,80.04
2023-02-17T05:23:30.776Z,80.01
2023-02-17T05:26:50.101Z,79.89
2023-02-17T05:30:21.143Z,80.11
2023-02-17T05:33:40.507Z,80.03
2023-02-17T05:37:02.171Z,79.91
2023-02-17T05:40:30.685Z,79.82
2023-02-17T05:43:56.519Z,79.80
2023-02-17T05:47:17.778Z,79.60
2023-02-17T05:50:40.159Z,79.46
2023-02-17T05:53:58.892Z,79.24
2023-02-17T05:57:21.717Z,79.32
2023-02-17T06:00:48.837Z,78.80
2023-02-17T06:04:10.298Z,78.49
2023-02-17T06:07:32.475Z,78.26
2023-02-17T06:10:52.725Z,78.27
2023-02-17T06:14:10.891Z,78.06
2023-02-17T06:17:29.619Z,78.28
2023-02-17T06:20:55.501Z,78.00
2023-02-17T06:24:18.798Z,77.64
2023-02-17T06:27:37.247Z,77.44
2023-02-17T06:30:56.546Z,77.32
2023-02-17T06:34:16.953Z,76.44
2023-02-17T06:37:36.902Z,76.53
2023-02-17T06:41:01.733Z,76.51
2023-02-17T06:44:21.403Z,76.18
2023-02-17T06:47:40.029Z,74.71
2023-02-17T06:50:50.690Z,74.73
2023-02-17T06:54:09.411Z,73.97
2023-02-17T06:57:32.912Z,73.27
2023-02-17T07:00:48.926Z,72.98
2023-02-17T07:04:12.489Z,72.99
2023-02-17T07:07:31.801Z,72.35
2023-02-17T07:10:51.182Z,72.34
2023-02-17T07:14:14.642Z,71.40
2023-02-17T07:17:35.970Z,70.95
2023-02-17T07:20:58.560Z,70.44
2023-02-17T07:24:18.218Z,69.96
2023-02-17T07:27:40.453Z,69.94
2023-02-17T07:31:09.689Z,69.95
2023-02-17T07:34:30.196Z,69.29
2023-02-17T07:37:48.812Z,68.75
2023-02-17T07:41:08.765Z,68.64
2023-02-17T07:44:33.518Z,68.14
2023-02-17T07:47:58.271Z,67.84
2023-02-17T07:51:11.359Z,67.78
2023-02-17T07:54:30.302Z,67.51
2023-02-17T07:57:48.689Z,67.70
2023-02-17T08:01:16.670Z,66.92
2023-02-17T08:04:40.900Z,66.35
2023-02-17T08:08:21.299Z,67.06
2023-02-17T08:12:25.497Z,67.04
2023-02-17T08:15:51.136Z,67.55
2023-02-17T08:19:14.304Z,67.46
2023-02-17T08:22:39.548Z,67.63
2023-02-17T08:26:05.716Z,68.17
2023-02-17T08:29:31.573Z,68.97
2023-02-17T08:32:51.881Z,68.90
2023-02-17T08:36:12.431Z,69.75
2023-02-17T08:39:37.904Z,70.30
2023-02-17T08:43:03.669Z,71.63
2023-02-17T08:46:30.200Z,72.39
2023-02-17T08:50:05.932Z,73.06
2023-02-17T08:53:29.274Z,74.20
2023-02-17T08:56:49.065Z,74.66
2023-02-17T09:00:12.547Z,75.34
2023-02-17T09:03:30.267Z,75.60
2023-02-17T09:07:06.022Z,75.76
2023-02-17T09:10:16.955Z,75.43
2023-02-17T09:13:39.095Z,75.26
2023-02-17T09:17:06.007Z,75.51
2023-02-17T09:20:27.426Z,75.21
2023-02-17T09:23:58.562Z,75.13
2023-02-17T09:27:21.413Z,75.04
2023-02-17T09:30:43.135Z,74.90
2023-02-17T09:34:10.530Z,75.11
2023-02-17T09:37:30.068Z,75.39
2023-02-17T09:41:06.908Z,76.28
2023-02-17T09:44:36.150Z,76.42
2023-02-17T09:47:52.852Z,76.30
2023-02-17T09:51:32.395Z,76.84
2023-02-17T09:55:40.341Z,77.14
2023-02-17T09:59:22.561Z,77.73
2023-02-17T10:03:22.520Z,78.18
2023-02-17T10:07:10.953Z,78.57
2023-02-17T10:11:08.400Z,78.56
2023-02-17T10:15:38.463Z,78.44
2023-02-17T10:19:30.339Z,78.96
2023-02-17T10:22:55.163Z,78.92
2023-02-17T10:26:54.204Z,79.24
2023-02-17T10:31:02.862Z,79.59
2023-02-17T10:34:43.748Z,79.97
2023-02-17T10:38:08.132Z,80.49
2023-02-17T10:41:36.473Z,80.50
2023-02-17T10:45:15.767Z,81.29
2023-02-17T10:48:38.680Z,81.37
2023-02-17T10:52:22.342Z,81.31
2023-02-17T10:56:08.450Z,81.62
2023-02-17T10:59:52.230Z,81.91
2023-02-17T11:03:19.443Z,81.79
2023-02-17T11:06:44.949Z,82.47
2023-02-17T11:10:36.050Z,82.68
2023-02-17T11:14:21.014Z,82.98
2023-02-17T11:18:01.806Z,83.04
2023-02-17T11:21:27.888Z,83.23
2023-02-17T11:25:13.527Z,83.16
2023-02-17T11:28:30.513Z,82.93
2023-02-17T11:32:07.803Z,82.94
2023-02-17T11:36:06.536Z,82.86
2023-02-17T11:39:28.538Z,83.19
2023-02-17T11:43:00.752Z,82.91
2023-02-17T11:46:55.258Z,82.58
2023-02-17T11:50:41.827Z,82.73
2023-02-17T11:55:08.754Z,82.24
2023-02-17T11:58:46.960Z,81.77
2023-02-17T12:02:41.089Z,81.77
2023-02-17T12:06:40.256Z,81.44
2023-02-17T12:10:04.705Z,80.83
2023-02-17T12:13:27.743Z,80.89
2023-02-17T12:16:55.828Z,80.45
2023-02-17T12:20:53.076Z,80.44
2023-02-17T12:25:16.017Z,80.17
2023-02-17T12:28:52.209Z,80.41
2023-02-17T12:32:25.354Z,80.51
2023-02-17T12:36:14.843Z,80.34
2023-02-17T12:40:21.477Z,80.17
2023-02-17T12:43:57.111Z,80.25
2023-02-17T12:47:20.348Z,79.84
2023-02-17T12:51:26.756Z,79.85
2023-02-17T12:55:22.653Z,79.44
2023-02-17T12:58:46.719Z,79.21
2023-02-17T13:02:24.089Z,79.47
2023-02-17T13:05:57.444Z,78.96
2023-02-17T13:09:42.978Z,78.68
2023-02-17T13:13:15.401Z,78.15
2023-02-17T13:17:08.887Z,78.21
2023-02-17T13:21:28.824Z,77.86
2023-02-17T13:24:58.795Z,78.30
2023-02-17T13:28:34.048Z,78.72
2023-02-17T13:32:37.811Z,78.74
2023-02-17T13:36:57.497Z,79.03
2023-02-17T13:40:41.817Z,79.06
2023-02-17T13:44:45.156Z,79.39
2023-02-17T13:48:15.784Z,79.49
2023-02-17T13:51:41.394Z,79.63
2023-02-17T13:55:24.285Z,80.05
2023-02-17T13:58:51.581Z,80.00
2023-02-17T14:02:30.385Z,79.94
2023-02-17T14:06:04.972Z,80.30
2023-02-17T14:09:43.491Z,80.24
2023-02-17T14:13:05.637Z,80.36
2023-02-17T14:17:05.912Z,80.50
2023-02-17T14:20:52.679Z,81.21
2023-02-17T14:24:32.177Z,81.40
2023-02-17T14:28:01.053Z,81.40
2023-02-17T14:31:18.943Z,81.44
2023-02-17T14:34:45.143Z,81.69
2023-02-17T14:38:10.409Z,81.40
2023-02-17T14:41:31.316Z,82.03
2023-02-17T14:45:00.367Z,81.82
2023-02-17T14:48:14.805Z,81.69
2023-02-17T14:51:34.362Z,81.94
2023-02-17T14:55:00.392Z,81.93
2023-02-17T14:58:24.483Z,82.11
2023-02-17T15:01:43.118Z,82.08
2023-02-17T15:05:02.074Z,82.09
2023-02-17T15:08:32.296Z,81.95
2023-02-17T15:12:12.628Z,82.10
2023-02-17T15:15:20.865Z,82.04
2023-02-17T15:18:42.600Z,81.80
2023-02-17T15:21:54.084Z,81.82
2023-02-17T15:25:17.458Z,81.53
2023-02-17T15:28:43.582Z,81.51
2023-02-17T15:31:57.987Z,81.87
2023-02-17T15:35:28.174Z,81.66
2023-02-17T15:39:16.180Z,81.90
2023-02-17T15:43:06.576Z,82.24
2023-02-17T15:47:05.815Z,82.53
2023-02-17T15:53:57.938Z,82.61
2023-02-17T15:57:25.512Z,82.51
2023-02-17T16:01:12.362Z,82.58
2023-02-17T16:04:36.005Z,82.40
2023-02-17T16:07:56.157Z,82.54
2023-02-17T16:11:16.236Z,82.44
2023-02-17T16:15:09.355Z,82.53
2023-02-17T16:18:41.878Z,82.47
2023-02-17T16:22:00.872Z,83.15
2023-02-17T16:25:24.107Z,83.82
2023-02-17T16:28:45.730Z,83.70
2023-02-17T16:32:05.944Z,83.95
2023-02-17T16:35:31.515Z,84.90
2023-02-17T16:38:53.021Z,84.89
2023-02-17T16:42:12.511Z,84.99
2023-02-17T16:45:51.976Z,85.23
2023-02-17T16:53:12.329Z,85.69
2023-02-17T16:56:37.035Z,85.84
2023-02-17T16:59:56.024Z,86.03
2023-02-17T17:03:12.009Z,86.12
2023-02-17T17:06:31.620Z,86.13
2023-02-17T17:10:15.320Z,86.18
2023-02-17T17:13:48.708Z,86.45
2023-02-17T17:17:11.729Z,86.22
2023-02-17T17:20:52.760Z,86.07
2023-02-17T17:24:18.091Z,86.08
2023-02-17T17:27:39.321Z,85.58
2023-02-17T17:31:04.027Z,85.54
2023-02-17T17:34:25.779Z,85.17
2023-02-17T17:37:44.294Z,84.84
2023-02-17T17:41:02.573Z,84.57
2023-02-17T17:44:28.232Z,84.39
2023-02-17T17:47:47.454Z,84.05
2023-02-17T17:51:06.468Z,83.89
2023-02-17T17:54:19.742Z,84.13
2023-02-17T17:57:48.044Z,84.08
2023-02-17T18:01:11.379Z,84.02
2023-02-17T18:04:37.152Z,84.03
2023-02-17T18:07:57.067Z,83.86
2023-02-17T18:11:19.621Z,83.71
2023-02-17T18:14:43.685Z,83.65
2023-02-17T18:17:55.941Z,84.03
2023-02-17T18:21:14.689Z,84.55
2023-02-17T18:24:33.306Z,84.71
2023-02-17T18:27:48.555Z,85.14
2023-02-17T18:31:01.056Z,85.25
2023-02-17T18:34:25.092Z,85.18
2023-02-17T18:37:45.403Z,85.04
2023-02-17T18:41:04.291Z,85.12
2023-02-17T18:44:23.748Z,85.26
2023-02-17T18:47:43.342Z,84.87
2023-02-17T18:50:53.578Z,84.68
2023-02-17T18:54:17.472Z,84.40
2023-02-17T18:57:36.842Z,83.92
2023-02-17T19:00:59.584Z,83.65
2023-02-17T19:04:19.287Z,83.30
2023-02-17T19:08:00.738Z,83.02
2023-02-17T19:11:23.992Z,82.59
2023-02-17T19:14:43.515Z,82.17
2023-02-17T19:18:12.209Z,82.27
2023-02-17T19:21:57.825Z,81.81
2023-02-17T19:25:20.958Z,82.02
2023-02-17T19:28:44.434Z,81.85
2023-02-17T19:32:07.867Z,81.89
2023-02-17T19:35:27.891Z,81.62
2023-02-17T19:38:47.302Z,81.42
2023-02-17T19:42:14.270Z,81.37
2023-02-17T19:45:38.582Z,81.26
2023-02-17T19:48:58.463Z,81.16
2023-02-17T19:52:17.976Z,81.33
2023-02-17T20:02:03.833Z,81.03
2023-02-17T20:05:27.469Z,80.77
2023-02-17T20:09:13.425Z,80.81
2023-02-17T20:12:32.252Z,80.37
2023-02-17T20:16:07.842Z,80.31
2023-02-17T20:19:29.460Z,80.22
2023-02-17T20:22:59.485Z,79.92
2023-02-17T20:26:32.841Z,80.01
2023-02-17T20:29:56.372Z,80.28
2023-02-17T20:33:21.793Z,80.43
2023-02-17T20:36:49.581Z,80.49
2023-02-17T20:40:08.065Z,80.33
2023-02-17T20:43:37.816Z,80.34
2023-02-17T20:47:02.908Z,80.59
2023-02-17T20:50:26.316Z,80.89
2023-02-17T20:53:48.458Z,80.87
2023-02-17T20:57:15.682Z,81.15
2023-02-17T21:00:54.616Z,81.17
2023-02-17T21:04:25.996Z,81.03
2023-02-17T21:07:44.513Z,80.88
2023-02-17T21:10:58.000Z,81.05
2023-02-17T21:14:26.858Z,80.94
2023-02-17T21:17:52.893Z,80.93
2023-02-17T21:21:22.920Z,80.78
2023-02-17T21:24:52.878Z,80.79
2023-02-17T21:28:15.239Z,80.87
2023-02-17T21:31:43.514Z,80.91
2023-02-17T21:35:08.260Z,80.53
2023-02-17T21:38:32.277Z,80.81
2023-02-17T21:41:51.299Z,80.79
2023-02-17T21:45:15.461Z,80.83
2023-02-17T21:48:42.201Z,81.18
2023-02-17T21:52:11.178Z,81.41
2023-02-17T21:55:34.975Z,81.31
2023-02-17T21:59:18.617Z,81.19
2023-02-17T22:02:44.225Z,81.04
2023-02-17T22:06:34.426Z,81.17
2023-02-17T22:10:00.674Z,81.16
2023-02-17T22:13:24.405Z,80.99
2023-02-17T22:16:33.948Z,81.01
2023-02-17T22:19:52.483Z,81.04
2023-02-17T22:23:15.742Z,80.96
2023-02-17T22:26:42.643Z,80.84
2023-02-17T22:30:09.393Z,81.08
2023-02-17T22:33:33.029Z,81.21
2023-02-17T22:36:59.910Z,81.27
2023-02-17T22:40:27.172Z,81.17
2023-02-17T22:43:51.636Z,81.14
2023-02-17T22:47:12.381Z,81.19
2023-02-17T22:50:39.173Z,81.38
2023-02-17T22:54:01.780Z,81.22
2023-02-17T22:57:36.569Z,81.64
2023-02-17T23:01:20.377Z,81.61
2023-02-17T23:04:38.871Z,81.56
2023-02-17T23:08:01.724Z,82.09
2023-02-17T23:11:46.627Z,82.45
2023-02-17T23:15:39.311Z,82.56
2023-02-17T23:19:05.345Z,83.30
2023-02-17T23:22:35.198Z,83.54
2023-02-17T23:33:59.213Z,84.09
2023-02-17T23:37:39.636Z,84.14
2023-02-17T23:40:54.334Z,84.08
2023-02-17T23:44:04.966Z,84.11
2023-02-17T23:47:27.986Z,84.21
2023-02-17T23:50:59.481Z,84.15
2023-02-17T23:54:22.729Z,84.00
2023-02-17T23:57:42.166Z,84.04
